Terminal Aerodrome Forecast
Issued by NWS

Home | Current Version | Previous Version | Text Only | Print | Product List | Glossary On
Versions: 1 2 3 4 5 6 7 8 9 10 11 12 13 14 15 16 17
000
FTUS42 KMLB 032348 AAA
TAFISM
TAF AMD
KISM 032348Z 0400/0424 14008KT P6SM VCTS FEW050CB BKN120 BKN250
      TEMPO 0400/0401 27020G32KT TS SCT050CB
     FM040200 18003KT P6SM SCT250
     FM041400 19005KT P6SM SCT025
     FM041900 VRB04KT P6SM VCTS SCT050CB SCT100 BKN150
      AMD NOT SKED 0403/0412=

USA.gov is the U.S. government's official web portal to all federal, state and local government web resources and services.